createdAt,value
2022-12-14T00:01:45.152Z,45.00
2022-12-14T00:06:53.576Z,42.33
2022-12-14T00:11:56.472Z,42.63
2022-12-14T00:16:59.346Z,42.43
2022-12-14T00:22:03.590Z,43.20
2022-12-14T00:27:06.506Z,42.53
2022-12-14T00:32:09.393Z,42.03
2022-12-14T00:37:13.646Z,40.40
2022-12-14T00:42:16.645Z,42.47
2022-12-14T00:47:19.551Z,42.63
2022-12-14T00:52:23.800Z,41.43
2022-12-14T00:57:26.697Z,40.17
2022-12-14T01:02:29.713Z,42.53
2022-12-14T01:07:34.012Z,42.60
2022-12-14T01:12:36.929Z,44.10
2022-12-14T01:17:39.905Z,41.20
2022-12-14T01:22:56.906Z,41.20
2022-12-14T01:27:59.811Z,40.10
2022-12-14T01:33:02.667Z,42.63
2022-12-14T01:38:06.876Z,42.00
2022-12-14T01:43:14.108Z,40.97
2022-12-14T01:48:17.149Z,41.70
2022-12-14T01:53:22.947Z,41.77
2022-12-14T01:58:28.837Z,41.27
2022-12-14T02:03:34.253Z,42.13
2022-12-14T02:08:42.001Z,41.03
2022-12-14T02:13:45.382Z,41.33
2022-12-14T02:18:51.998Z,40.57
2022-12-14T02:24:24.822Z,40.53
2022-12-14T02:30:03.349Z,39.87
2022-12-14T02:35:14.163Z,40.97
2022-12-14T02:40:26.674Z,41.20
2022-12-14T02:45:38.479Z,39.40
2022-12-14T02:50:49.910Z,39.70
2022-12-14T02:55:54.946Z,40.63
2022-12-14T03:00:58.582Z,40.13
2022-12-14T03:06:04.677Z,41.87
2022-12-14T03:11:08.634Z,40.53
2022-12-14T03:16:15.623Z,40.87
2022-12-14T03:21:25.762Z,42.07
2022-12-14T03:26:34.274Z,40.07
2022-12-14T03:31:44.352Z,41.43
2022-12-14T03:36:57.781Z,40.10
2022-12-14T03:42:09.459Z,41.30
2022-12-14T03:47:25.905Z,40.83
2022-12-14T03:52:36.676Z,41.27
2022-12-14T03:57:49.704Z,40.50
2022-12-14T04:02:59.891Z,41.60
2022-12-14T04:08:11.046Z,40.90
2022-12-14T04:13:34.287Z,39.47
2022-12-14T04:19:00.548Z,39.43
2022-12-14T04:24:29.405Z,40.03
2022-12-14T04:29:53.331Z,40.73
2022-12-14T04:35:00.990Z,39.23
2022-12-14T04:40:09.560Z,39.07
2022-12-14T04:45:18.221Z,38.17
2022-12-14T04:50:27.756Z,41.17
2022-12-14T04:55:39.557Z,42.47
2022-12-14T05:00:58.038Z,40.63
2022-12-14T05:06:09.555Z,41.40
2022-12-14T05:11:52.089Z,39.70
2022-12-14T05:16:44.954Z,39.43
2022-12-14T05:21:52.076Z,41.07
2022-12-14T05:26:56.335Z,40.30
2022-12-14T05:31:59.563Z,40.37
2022-12-14T05:37:02.696Z,40.00
2022-12-14T05:42:07.128Z,46.93
2022-12-14T05:47:10.658Z,41.07
2022-12-14T05:52:13.687Z,41.37
2022-12-14T05:57:19.125Z,41.60
2022-12-14T06:02:22.148Z,41.07
2022-12-14T06:07:27.945Z,42.47
2022-12-14T06:12:34.638Z,41.90
2022-12-14T06:17:37.672Z,51.75
2022-12-14T06:22:45.852Z,45.00
2022-12-14T06:27:55.529Z,43.20
2022-12-14T06:32:58.464Z,42.07
2022-12-14T06:38:01.392Z,42.00
2022-12-14T06:43:05.893Z,44.20
2022-12-14T06:48:08.859Z,42.73
2022-12-14T06:53:13.632Z,42.10
2022-12-14T06:58:17.868Z,42.93
2022-12-14T07:03:20.862Z,42.83
2022-12-14T07:08:23.996Z,40.63
2022-12-14T07:13:28.847Z,41.10
2022-12-14T07:18:32.381Z,41.33
2022-12-14T07:23:37.414Z,41.43
2022-12-14T07:28:42.636Z,43.00
2022-12-14T07:33:45.723Z,41.83
2022-12-14T07:38:50.103Z,42.57
2022-12-14T07:43:56.180Z,42.07
2022-12-14T07:49:00.340Z,39.87
2022-12-14T07:54:06.058Z,41.37
2022-12-14T07:59:15.029Z,39.07
2022-12-14T08:04:20.547Z,40.17
2022-12-14T08:09:23.911Z,41.60
2022-12-14T08:14:28.581Z,40.37
2022-12-14T08:19:31.528Z,43.20
2022-12-14T08:24:34.430Z,43.03
2022-12-14T08:29:38.689Z,40.93
2022-12-14T08:34:41.600Z,41.63
2022-12-14T08:39:44.522Z,41.20
2022-12-14T08:44:53.776Z,40.87
2022-12-14T08:49:56.645Z,40.13
2022-12-14T08:55:00.067Z,40.13
2022-12-14T09:00:05.296Z,41.00
2022-12-14T09:05:09.870Z,39.17
2022-12-14T09:10:13.224Z,39.33
2022-12-14T09:15:17.696Z,38.97
2022-12-14T09:20:20.585Z,40.73
2022-12-14T09:25:23.549Z,41.80
2022-12-14T09:30:27.888Z,40.87
2022-12-14T09:35:30.950Z,41.50
2022-12-14T09:40:34.910Z,40.70
2022-12-14T09:45:48.984Z,40.73
2022-12-14T09:50:54.291Z,40.67
2022-12-14T09:55:58.961Z,41.27
2022-12-14T10:01:24.659Z,40.07
2022-12-14T10:06:37.302Z,41.13
2022-12-14T10:11:47.024Z,41.57
2022-12-14T10:17:00.998Z,42.80
2022-12-14T10:22:07.829Z,42.03
2022-12-14T10:27:15.176Z,43.37
2022-12-14T10:32:25.838Z,41.90
2022-12-14T10:37:34.528Z,42.23
2022-12-14T10:42:49.454Z,42.27
2022-12-14T10:47:58.583Z,43.03
2022-12-14T10:53:04.310Z,44.03
2022-12-14T10:58:07.254Z,43.13
2022-12-14T11:03:16.118Z,42.00
2022-12-14T11:08:48.375Z,42.03
2022-12-14T11:13:53.805Z,43.13
2022-12-14T11:19:00.180Z,43.57
2022-12-14T11:24:03.650Z,44.50
2022-12-14T11:29:16.915Z,42.17
2022-12-14T11:34:29.960Z,42.87
2022-12-14T11:39:32.977Z,42.17
2022-12-14T11:44:37.157Z,45.03
2022-12-14T11:49:47.547Z,44.37
2022-12-14T11:55:10.994Z,41.83
2022-12-14T12:00:26.249Z,42.77
2022-12-14T12:05:33.741Z,43.37
2022-12-14T12:10:41.589Z,44.50
2022-12-14T12:15:50.277Z,44.77
2022-12-14T12:20:59.390Z,45.13
2022-12-14T12:26:09.755Z,45.13
2022-12-14T12:31:17.723Z,45.43
2022-12-14T12:36:24.518Z,44.40
2022-12-14T12:41:34.115Z,43.37
2022-12-14T12:47:07.149Z,43.10
2022-12-14T12:52:18.867Z,45.43
2022-12-14T12:57:23.908Z,45.10
2022-12-14T13:02:32.448Z,44.20
2022-12-14T13:07:40.557Z,44.67
2022-12-14T13:12:48.089Z,45.00
2022-12-14T13:18:01.087Z,43.50
2022-12-14T13:23:44.101Z,45.67
2022-12-14T13:28:50.552Z,43.20
2022-12-14T13:34:16.195Z,44.53
2022-12-14T13:39:50.603Z,43.57
2022-12-14T13:45:00.929Z,44.57
2022-12-14T13:50:46.360Z,44.80
2022-12-14T13:55:34.029Z,45.80
2022-12-14T14:00:59.720Z,45.30
2022-12-14T14:06:08.607Z,44.17
2022-12-14T14:11:47.020Z,43.77
2022-12-14T14:16:57.590Z,44.97
2022-12-14T14:22:23.345Z,45.70
2022-12-14T14:27:30.954Z,44.80
2022-12-14T14:32:44.222Z,42.80
2022-12-14T14:37:56.500Z,42.43
2022-12-14T14:43:06.904Z,42.73
2022-12-14T14:48:23.758Z,43.97
2022-12-14T14:53:31.113Z,42.30
2022-12-14T14:58:37.074Z,41.37
2022-12-14T15:03:49.795Z,43.17
2022-12-14T15:08:59.356Z,43.43
2022-12-14T15:14:31.063Z,43.67
2022-12-14T15:19:36.774Z,42.63
2022-12-14T15:24:41.709Z,42.60
2022-12-14T15:29:49.390Z,45.67
2022-12-14T15:34:56.995Z,44.33
2022-12-14T15:40:11.833Z,50.37
2022-12-14T15:45:16.540Z,45.93
2022-12-14T15:50:26.803Z,46.07
2022-12-14T15:55:34.458Z,44.73
2022-12-14T16:00:42.844Z,45.33
2022-12-14T16:05:54.080Z,46.37
2022-12-14T16:11:00.966Z,44.40
2022-12-14T16:16:09.333Z,43.97
2022-12-14T16:21:27.581Z,42.03
2022-12-14T16:26:36.253Z,43.23
2022-12-14T16:31:39.430Z,41.50
2022-12-14T16:36:51.947Z,42.57
2022-12-14T16:42:17.866Z,43.43
2022-12-14T16:48:03.230Z,45.47
2022-12-14T16:53:17.436Z,40.93
2022-12-14T16:58:22.771Z,40.70
2022-12-14T17:03:27.274Z,40.70
2022-12-14T17:08:32.153Z,40.77
2022-12-14T17:13:35.104Z,40.87
2022-12-14T17:18:41.502Z,40.63
2022-12-14T17:23:46.762Z,41.37
2022-12-14T17:28:50.184Z,40.43
2022-12-14T17:33:54.112Z,40.27
2022-12-14T17:39:00.958Z,41.47
2022-12-14T17:44:04.761Z,40.53
2022-12-14T17:49:08.293Z,39.67
2022-12-14T17:54:17.452Z,40.10
2022-12-14T17:59:20.441Z,40.20
2022-12-14T18:04:23.454Z,41.07
2022-12-14T18:09:27.815Z,41.17
2022-12-14T18:14:30.789Z,41.67
2022-12-14T18:19:33.779Z,41.47
2022-12-14T18:24:42.375Z,41.83
2022-12-14T18:29:45.493Z,40.10
2022-12-14T18:34:48.498Z,38.97
2022-12-14T18:39:52.959Z,40.07
2022-12-14T18:44:56.928Z,40.00
2022-12-14T18:50:00.922Z,43.93
2022-12-14T18:55:07.419Z,43.23
2022-12-14T19:00:25.793Z,42.97
2022-12-14T19:05:29.617Z,43.03
2022-12-14T19:10:39.325Z,40.03
2022-12-14T19:15:42.395Z,39.80
2022-12-14T19:20:45.445Z,40.90
2022-12-14T19:25:53.923Z,39.33
2022-12-14T19:30:57.110Z,38.30
2022-12-14T19:36:00.267Z,39.30
2022-12-14T19:41:13.482Z,40.33
2022-12-14T19:46:29.542Z,39.83
2022-12-14T19:51:32.566Z,39.70
2022-12-14T19:56:36.971Z,40.10
2022-12-14T20:01:46.248Z,40.80
2022-12-14T20:06:50.893Z,41.27
2022-12-14T20:11:55.284Z,42.13
2022-12-14T20:17:09.390Z,40.30
2022-12-14T20:22:14.748Z,41.80
2022-12-14T20:27:19.860Z,40.63
2022-12-14T20:32:22.783Z,41.03
2022-12-14T20:37:25.746Z,39.80
2022-12-14T20:42:31.251Z,41.37
2022-12-14T20:47:35.684Z,40.17
2022-12-14T20:52:39.364Z,41.90
2022-12-14T20:57:43.782Z,40.80
2022-12-14T21:02:47.015Z,41.37
2022-12-14T21:07:50.088Z,41.37
2022-12-14T21:12:54.435Z,48.22
2022-12-14T21:17:57.463Z,41.07
2022-12-14T21:23:00.355Z,42.47
2022-12-14T21:28:04.846Z,40.93
2022-12-14T21:33:07.763Z,42.27
2022-12-14T21:38:10.643Z,40.70
2022-12-14T21:43:15.065Z,41.50
2022-12-14T21:48:18.004Z,42.07
2022-12-14T21:53:20.899Z,43.70
2022-12-14T21:58:25.148Z,43.77
2022-12-14T22:03:28.302Z,45.53
2022-12-14T22:08:31.965Z,43.93
2022-12-14T22:13:36.367Z,42.40
2022-12-14T22:18:39.449Z,42.17
2022-12-14T22:23:43.859Z,41.83
2022-12-14T22:28:50.572Z,43.70
2022-12-14T22:33:55.052Z,43.40
2022-12-14T22:38:58.707Z,43.97
2022-12-14T22:44:06.087Z,44.67
2022-12-14T22:49:09.652Z,44.57
2022-12-14T22:54:19.356Z,43.10
2022-12-14T22:59:29.193Z,42.60
2022-12-14T23:04:32.276Z,42.63
2022-12-14T23:09:53.225Z,44.27
2022-12-14T23:15:14.775Z,42.57
2022-12-14T23:20:35.352Z,42.73
2022-12-14T23:25:55.957Z,42.10
2022-12-14T23:31:17.873Z,43.27
2022-12-14T23:36:38.558Z,42.40
2022-12-14T23:41:58.952Z,40.67
2022-12-14T23:47:21.055Z,41.33
2022-12-14T23:52:41.725Z,40.67
2022-12-14T23:58:02.409Z,39.57
